createdAt,value
2019-03-11T00:02:21.454Z,98074.54
2019-03-11T00:04:51.910Z,98074.03
2019-03-11T00:07:22.250Z,98078.10
2019-03-11T00:09:52.665Z,98075.57
2019-03-11T00:12:23.063Z,98060.03
2019-03-11T00:14:53.511Z,98067.75
2019-03-11T00:17:25.018Z,98068.78
2019-03-11T00:19:55.284Z,98060.05
2019-03-11T00:22:25.583Z,98076.10
2019-03-11T00:24:56.015Z,98080.95
2019-03-11T00:27:26.348Z,98075.48
2019-03-11T00:29:56.701Z,98088.87
2019-03-11T00:32:27.098Z,98075.90
2019-03-11T00:34:57.406Z,98092.12
2019-03-11T00:37:27.708Z,98086.87
2019-03-11T00:39:58.033Z,98093.84
2019-03-11T00:42:28.382Z,98096.00
2019-03-11T00:44:58.853Z,98096.39
2019-03-11T00:47:29.230Z,98093.25
2019-03-11T00:49:59.719Z,98098.92
2019-03-11T00:52:30.151Z,98097.21
2019-03-11T00:55:00.691Z,98082.17
2019-03-11T00:57:31.072Z,98079.13
2019-03-11T01:00:01.369Z,98083.09
2019-03-11T01:02:31.725Z,98073.24
2019-03-11T01:05:02.148Z,98082.48
2019-03-11T01:07:32.591Z,98072.23
2019-03-11T01:10:03.010Z,98074.06
2019-03-11T01:12:33.239Z,98075.27
2019-03-11T01:15:03.760Z,98072.73
2019-03-11T01:17:33.955Z,98082.80
2019-03-11T01:20:04.386Z,98075.06
2019-03-11T01:22:34.728Z,98061.17
2019-03-11T01:25:05.321Z,98063.41
2019-03-11T01:27:35.786Z,98057.93
2019-03-11T01:30:06.942Z,98050.11
2019-03-11T01:32:37.293Z,98053.69
2019-03-11T01:35:08.118Z,98053.97
2019-03-11T01:37:38.532Z,98040.59
2019-03-11T01:40:11.688Z,98038.44
2019-03-11T01:42:42.134Z,98038.64
2019-03-11T01:45:14.796Z,98029.09
2019-03-11T01:47:45.212Z,98027.87
2019-03-11T01:50:15.777Z,98015.22
2019-03-11T01:52:46.112Z,98014.22
2019-03-11T01:55:16.507Z,98011.47
2019-03-11T01:57:46.951Z,98005.78
2019-03-11T02:00:17.814Z,97996.34
2019-03-11T02:02:48.239Z,97989.76
2019-03-11T02:05:18.654Z,98002.33
2019-03-11T02:07:49.091Z,97987.95
2019-03-11T02:10:19.499Z,97984.69
2019-03-11T02:12:49.916Z,97984.88
2019-03-11T02:15:20.309Z,97972.73
2019-03-11T02:18:09.743Z,97971.71
2019-03-11T02:20:40.072Z,97978.91
2019-03-11T02:23:10.240Z,97973.34
2019-03-11T02:25:40.688Z,97966.23
2019-03-11T02:28:10.917Z,97963.08
2019-03-11T02:30:41.315Z,97950.02
2019-03-11T02:33:11.607Z,97938.05
2019-03-11T02:35:42.295Z,97933.18
2019-03-11T02:38:12.634Z,97931.45
2019-03-11T02:40:42.839Z,97922.74
2019-03-11T02:43:13.163Z,97922.12
2019-03-11T02:45:43.386Z,97910.27
2019-03-11T02:48:13.786Z,97911.48
2019-03-11T02:50:44.013Z,97904.50
2019-03-11T02:53:14.330Z,97906.00
2019-03-11T02:55:44.512Z,97894.03
2019-03-11T02:58:14.744Z,97891.81
2019-03-11T03:00:45.132Z,97882.44
2019-03-11T03:03:49.641Z,97879.20
2019-03-11T03:06:19.989Z,97882.13
2019-03-11T03:08:50.164Z,97878.25
2019-03-11T03:11:20.464Z,97882.69
2019-03-11T03:13:50.796Z,97874.97
2019-03-11T03:16:20.925Z,97867.75
2019-03-11T03:18:51.103Z,97882.26
2019-03-11T03:21:40.556Z,97874.42
2019-03-11T03:24:10.758Z,97882.67
2019-03-11T03:26:40.932Z,97876.09
2019-03-11T03:29:11.316Z,97873.86
2019-03-11T03:31:41.609Z,97886.26
2019-03-11T03:34:11.808Z,97878.45
2019-03-11T03:36:42.063Z,97880.05
2019-03-11T03:39:12.500Z,97871.50
2019-03-11T03:41:42.712Z,97875.89
2019-03-11T03:44:13.027Z,97870.41
2019-03-11T03:46:43.230Z,97867.16
2019-03-11T03:49:13.465Z,97877.29
2019-03-11T03:51:43.757Z,97877.91
2019-03-11T03:54:14.002Z,97873.17
2019-03-11T03:56:44.216Z,97869.72
2019-03-11T03:59:14.441Z,97875.19
2019-03-11T04:01:44.703Z,97874.33
2019-03-11T04:04:14.951Z,97874.27
2019-03-11T04:06:45.298Z,97856.91
2019-03-11T04:09:15.559Z,97858.16
2019-03-11T04:11:45.786Z,97844.88
2019-03-11T04:14:16.225Z,97839.52
2019-03-11T04:16:46.616Z,97831.42
2019-03-11T04:19:16.948Z,97836.16
2019-03-11T04:21:47.401Z,97842.14
2019-03-11T04:24:17.813Z,97842.22
2019-03-11T04:26:54.952Z,97842.11
2019-03-11T04:29:25.597Z,97835.55
2019-03-11T04:31:55.948Z,97833.64
2019-03-11T04:34:26.221Z,97826.94
2019-03-11T04:36:56.603Z,97829.06
2019-03-11T04:39:27.016Z,97820.35
2019-03-11T04:41:57.374Z,97814.27
2019-03-11T04:44:27.703Z,97814.88
2019-03-11T04:46:58.121Z,97819.14
2019-03-11T04:49:28.377Z,97795.45
2019-03-11T04:51:58.609Z,97782.37
2019-03-11T04:54:28.792Z,97779.85
2019-03-11T04:56:59.027Z,97759.67
2019-03-11T04:59:29.419Z,97716.11
2019-03-11T05:01:59.678Z,97729.39
2019-03-11T05:04:29.993Z,97734.66
2019-03-11T05:07:00.297Z,97743.94
2019-03-11T05:09:30.691Z,97747.81
2019-03-11T05:12:00.976Z,97759.16
2019-03-11T05:14:31.131Z,97765.47
2019-03-11T05:17:01.358Z,97755.02
2019-03-11T05:19:31.650Z,97752.88
2019-03-11T05:22:02.481Z,97739.70
2019-03-11T05:24:32.582Z,97741.03
2019-03-11T05:27:02.749Z,97751.95
2019-03-11T05:29:33.082Z,97766.84
2019-03-11T05:32:03.568Z,97765.75
2019-03-11T05:34:33.825Z,97766.45
2019-03-11T05:37:04.109Z,97748.39
2019-03-11T05:39:34.437Z,97755.63
2019-03-11T05:42:04.801Z,97754.70
2019-03-11T05:44:35.117Z,97754.40
2019-03-11T05:47:05.419Z,97754.28
2019-03-11T05:49:35.670Z,97762.24
2019-03-11T05:52:05.988Z,97763.72
2019-03-11T05:54:36.308Z,97765.55
2019-03-11T05:57:06.615Z,97765.66
2019-03-11T05:59:36.796Z,97784.73
2019-03-11T06:02:07.122Z,97768.30
2019-03-11T06:04:37.434Z,97775.70
2019-03-11T06:07:07.688Z,97776.02
2019-03-11T06:09:37.947Z,97771.47
2019-03-11T06:12:08.251Z,97764.77
2019-03-11T06:14:38.600Z,97757.91
2019-03-11T06:17:08.768Z,97761.34
2019-03-11T06:19:38.918Z,97746.34
2019-03-11T06:22:18.804Z,97754.88
2019-03-11T06:24:49.086Z,97766.73
2019-03-11T06:27:19.308Z,97762.86
2019-03-11T06:29:49.533Z,97777.64
2019-03-11T06:32:19.922Z,97777.55
2019-03-11T06:34:50.047Z,97776.32
2019-03-11T06:37:20.250Z,97778.34
2019-03-11T06:39:50.581Z,97771.16
2019-03-11T06:42:20.804Z,97796.91
2019-03-11T06:44:51.087Z,97789.78
2019-03-11T06:47:21.348Z,97813.70
2019-03-11T06:49:51.776Z,97805.41
2019-03-11T06:52:22.013Z,97805.52
2019-03-11T06:54:52.251Z,97807.03
2019-03-11T06:57:22.526Z,97801.37
2019-03-11T06:59:52.812Z,97794.04
2019-03-11T07:02:23.019Z,97801.88
2019-03-11T07:04:53.155Z,97797.10
2019-03-11T07:07:23.548Z,97796.40
2019-03-11T07:09:53.811Z,97806.02
2019-03-11T07:12:24.063Z,97810.48
2019-03-11T07:14:54.274Z,97821.73
2019-03-11T07:17:24.531Z,97836.50
2019-03-11T07:19:54.774Z,97848.48
2019-03-11T07:22:24.995Z,97852.97
2019-03-11T07:24:55.233Z,97849.30
2019-03-11T07:27:27.646Z,97844.25
2019-03-11T07:29:57.645Z,97856.28
2019-03-11T07:32:27.867Z,97864.42
2019-03-11T07:35:07.946Z,97860.86
2019-03-11T07:37:30.083Z,97863.72
2019-03-11T07:40:00.365Z,97868.04
2019-03-11T07:42:30.753Z,97874.16
2019-03-11T07:45:01.046Z,97878.89
2019-03-11T07:47:31.479Z,97878.61
2019-03-11T07:50:01.729Z,97891.59
2019-03-11T07:52:32.014Z,97908.23
2019-03-11T07:55:02.238Z,97919.10
2019-03-11T07:57:32.386Z,97927.44
2019-03-11T08:00:02.903Z,97937.69
2019-03-11T08:02:33.102Z,97908.05
2019-03-11T08:05:03.531Z,97916.92
2019-03-11T08:07:33.843Z,97930.56
2019-03-11T08:10:04.292Z,97941.07
2019-03-11T08:12:34.409Z,97943.14
2019-03-11T08:15:05.522Z,97956.85
2019-03-11T08:17:35.728Z,97956.64
2019-03-11T08:20:06.697Z,97955.31
2019-03-11T08:22:36.974Z,97954.09
2019-03-11T08:25:07.758Z,97941.72
2019-03-11T08:27:38.196Z,97936.81
2019-03-11T08:30:10.244Z,97944.48
2019-03-11T08:32:40.450Z,97935.81
2019-03-11T08:35:10.801Z,97946.64
2019-03-11T08:37:41.177Z,97955.80
2019-03-11T08:40:12.212Z,97958.66
2019-03-11T08:42:42.478Z,97962.96
2019-03-11T08:45:13.742Z,97963.09
2019-03-11T08:47:44.232Z,97971.05
2019-03-11T08:50:14.964Z,97959.73
2019-03-11T08:52:45.228Z,97951.25
2019-03-11T08:55:15.782Z,97952.20
2019-03-11T08:57:46.091Z,97958.95
2019-03-11T09:00:16.650Z,97963.10
2019-03-11T09:02:47.012Z,97969.05
2019-03-11T09:05:17.575Z,97967.65
2019-03-11T09:07:48.168Z,97959.58
2019-03-11T09:10:18.759Z,97966.78
2019-03-11T09:12:49.289Z,97964.02
2019-03-11T09:15:19.908Z,97965.89
2019-03-11T09:17:50.414Z,97961.05
2019-03-11T09:20:21.179Z,97962.48
2019-03-11T09:22:51.507Z,97966.83
2019-03-11T09:25:21.837Z,97961.67
2019-03-11T09:27:52.271Z,97965.39
2019-03-11T09:30:22.734Z,97965.95
2019-03-11T09:32:53.233Z,97967.33
2019-03-11T09:35:23.670Z,97972.18
2019-03-11T09:37:54.084Z,97986.84
2019-03-11T09:40:24.505Z,97977.18
2019-03-11T09:42:54.747Z,97980.23
2019-03-11T09:45:25.099Z,97982.31
2019-03-11T09:47:55.436Z,97969.66
2019-03-11T09:50:25.745Z,97975.97
2019-03-11T09:52:56.126Z,97978.57
2019-03-11T09:55:26.504Z,97979.25
2019-03-11T09:57:56.914Z,97979.72
2019-03-11T10:00:27.299Z,97982.54
2019-03-11T10:02:57.741Z,97974.14
2019-03-11T10:05:28.059Z,97989.30
2019-03-11T10:07:58.313Z,97990.82
2019-03-11T10:10:28.772Z,98003.74
2019-03-11T10:12:59.132Z,97997.26
2019-03-11T10:15:29.410Z,97998.77
2019-03-11T10:17:59.740Z,98000.60
2019-03-11T10:20:30.180Z,97997.23
2019-03-11T10:23:00.558Z,98005.61
2019-03-11T10:25:30.969Z,98007.23
2019-03-11T10:28:01.240Z,98002.96
2019-03-11T10:30:31.595Z,98017.64
2019-03-11T10:33:01.909Z,98016.75
2019-03-11T10:35:32.940Z,98021.94
2019-03-11T10:38:03.503Z,98024.02
2019-03-11T10:40:33.909Z,98026.37
2019-03-11T10:43:04.307Z,98024.77
2019-03-11T10:45:34.585Z,98027.92
2019-03-11T10:48:05.301Z,98030.20
2019-03-11T10:50:35.588Z,98028.75
2019-03-11T10:53:06.132Z,98033.87
2019-03-11T10:55:36.448Z,98049.81
2019-03-11T10:58:06.857Z,98052.35
2019-03-11T11:00:37.308Z,98055.83
2019-03-11T11:03:07.683Z,98061.02
2019-03-11T11:05:37.970Z,98059.98
2019-03-11T11:08:08.448Z,98062.89
2019-03-11T11:10:38.756Z,98071.31
2019-03-11T11:13:09.140Z,98075.30
2019-03-11T11:15:39.501Z,98074.06
2019-03-11T11:18:09.949Z,98076.98
2019-03-11T11:20:40.274Z,98078.54
2019-03-11T11:23:10.656Z,98083.86
2019-03-11T11:25:41.101Z,98083.00
2019-03-11T11:28:11.488Z,98078.30
2019-03-11T11:30:41.837Z,98066.65
2019-03-11T11:33:12.231Z,98079.20
2019-03-11T11:35:42.547Z,98077.79
2019-03-11T11:38:12.906Z,98087.29
2019-03-11T11:40:43.120Z,98080.08
2019-03-11T11:43:13.494Z,98083.89
2019-03-11T11:45:43.721Z,98075.86
2019-03-11T11:48:14.026Z,98076.16
2019-03-11T11:50:44.305Z,98079.98
2019-03-11T11:53:14.709Z,98082.23
2019-03-11T11:55:45.066Z,98082.91
2019-03-11T11:58:15.416Z,98088.59
2019-03-11T12:00:47.335Z,98092.27
2019-03-11T12:03:17.647Z,98094.86
2019-03-11T12:05:48.044Z,98094.47
2019-03-11T12:08:18.536Z,98097.38
2019-03-11T12:10:48.876Z,98107.52
2019-03-11T12:13:19.114Z,98099.02
2019-03-11T12:15:49.417Z,98106.70
2019-03-11T12:18:19.739Z,98111.36
2019-03-11T12:20:50.115Z,98103.87
2019-03-11T12:23:20.400Z,98106.75
2019-03-11T12:25:50.675Z,98103.84
2019-03-11T12:28:21.044Z,98111.49
2019-03-11T12:30:51.274Z,98106.19
2019-03-11T12:33:21.622Z,98114.38
2019-03-11T12:35:51.969Z,98119.66
2019-03-11T12:38:22.264Z,98117.95
2019-03-11T12:40:52.520Z,98116.75
2019-03-11T12:43:22.757Z,98112.55
2019-03-11T12:45:53.178Z,98127.10
2019-03-11T12:48:23.714Z,98130.12
2019-03-11T12:50:54.097Z,98133.97
2019-03-11T12:53:24.339Z,98133.56
2019-03-11T12:55:54.482Z,98122.77
2019-03-11T12:58:24.741Z,98128.84
2019-03-11T13:00:54.925Z,98126.13
2019-03-11T13:03:25.214Z,98136.14
2019-03-11T13:05:55.415Z,98125.73
2019-03-11T13:08:25.617Z,98121.34
2019-03-11T13:10:55.777Z,98112.88
2019-03-11T13:13:26.114Z,98139.14
2019-03-11T13:15:56.402Z,98140.64
2019-03-11T13:18:44.597Z,98148.50
2019-03-11T13:21:33.326Z,98145.12
2019-03-11T13:24:03.842Z,98145.86
2019-03-11T13:26:34.096Z,98139.64
2019-03-11T13:29:04.483Z,98144.28
2019-03-11T13:31:34.705Z,98143.24
2019-03-11T13:34:05.115Z,98136.52
2019-03-11T13:36:35.338Z,98144.15
2019-03-11T13:39:09.070Z,98143.33
2019-03-11T13:41:39.337Z,98143.20
2019-03-11T13:44:09.775Z,98153.85
2019-03-11T13:46:40.291Z,98167.38
2019-03-11T13:49:10.798Z,98167.14
2019-03-11T13:51:41.141Z,98173.22
2019-03-11T13:54:11.747Z,98177.68
2019-03-11T13:56:42.239Z,98184.07
2019-03-11T13:59:12.537Z,98178.22
2019-03-11T14:01:42.775Z,98190.81
2019-03-11T14:04:13.102Z,98191.70
2019-03-11T14:06:43.307Z,98183.53
2019-03-11T14:09:13.826Z,98199.63
2019-03-11T14:11:44.167Z,98193.82
2019-03-11T14:14:14.514Z,98192.88
2019-03-11T14:16:44.807Z,98196.71
2019-03-11T14:19:15.085Z,98198.86
2019-03-11T14:21:46.493Z,98200.13
2019-03-11T14:24:16.811Z,98198.89
2019-03-11T14:26:47.131Z,98204.88
2019-03-11T14:29:17.453Z,98213.58
2019-03-11T14:31:47.806Z,98219.45
2019-03-11T14:34:18.195Z,98224.77
2019-03-11T14:36:48.657Z,98231.66
2019-03-11T14:39:18.926Z,98227.60
2019-03-11T14:41:49.276Z,98232.69
2019-03-11T14:44:19.473Z,98233.42
2019-03-11T14:46:49.811Z,98241.13
2019-03-11T14:49:20.096Z,98233.07
2019-03-11T14:51:50.481Z,98235.83
2019-03-11T14:54:20.767Z,98235.25
2019-03-11T14:56:50.990Z,98236.57
2019-03-11T14:59:21.195Z,98237.31
2019-03-11T15:01:51.463Z,98245.64
2019-03-11T15:04:21.681Z,98245.14
2019-03-11T15:06:52.842Z,98241.47
2019-03-11T15:09:23.267Z,98242.20
2019-03-11T15:11:53.459Z,98243.14
2019-03-11T15:14:23.729Z,98247.59
2019-03-11T15:16:54.053Z,98242.86
2019-03-11T15:19:24.508Z,98248.16
2019-03-11T15:21:54.822Z,98235.95
2019-03-11T15:24:25.029Z,98237.05
2019-03-11T15:26:55.484Z,98244.48
2019-03-11T15:29:25.871Z,98256.75
2019-03-11T15:31:57.531Z,98262.59
2019-03-11T15:34:28.134Z,98266.53
2019-03-11T15:36:58.643Z,98271.08
2019-03-11T15:39:28.987Z,98267.19
2019-03-11T15:41:59.237Z,98275.05
2019-03-11T15:44:29.409Z,98270.30
2019-03-11T15:46:59.807Z,98274.73
2019-03-11T15:49:30.097Z,98278.45
2019-03-11T15:52:00.409Z,98284.55
2019-03-11T15:54:30.617Z,98320.16
2019-03-11T15:57:00.933Z,98349.04
2019-03-11T15:59:31.065Z,98348.59
2019-03-11T16:02:01.423Z,98332.92
2019-03-11T16:04:31.656Z,98313.55
2019-03-11T16:07:02.094Z,98307.50
2019-03-11T16:09:32.397Z,98307.80
2019-03-11T16:12:02.837Z,98302.22
2019-03-11T16:14:33.072Z,98297.07
2019-03-11T16:17:03.541Z,98301.10
2019-03-11T16:19:34.065Z,98294.77
2019-03-11T16:22:04.490Z,98290.30
2019-03-11T16:24:34.811Z,98289.13
2019-03-11T16:27:05.465Z,98296.47
2019-03-11T16:29:35.737Z,98297.63
2019-03-11T16:32:06.096Z,98297.81
2019-03-11T16:34:36.468Z,98300.91
2019-03-11T16:37:06.849Z,98297.81
2019-03-11T16:39:37.097Z,98296.81
2019-03-11T16:42:07.501Z,98300.06
2019-03-11T16:44:37.907Z,98301.73
2019-03-11T16:47:08.273Z,98304.52
2019-03-11T16:49:38.657Z,98309.70
2019-03-11T16:52:09.048Z,98298.11
2019-03-11T16:54:39.403Z,98298.47
2019-03-11T16:57:09.713Z,98299.64
2019-03-11T16:59:39.884Z,98299.16
2019-03-11T17:02:10.547Z,98303.78
2019-03-11T17:04:40.828Z,98300.75
2019-03-11T17:07:11.240Z,98305.62
2019-03-11T17:09:41.557Z,98308.48
2019-03-11T17:12:11.872Z,98317.06
2019-03-11T17:14:42.113Z,98318.36
2019-03-11T17:17:12.572Z,98328.03
2019-03-11T17:19:43.130Z,98331.27
2019-03-11T17:22:13.519Z,98328.77
2019-03-11T17:24:43.806Z,98336.83
2019-03-11T17:27:14.121Z,98338.55
2019-03-11T17:29:44.445Z,98338.08
2019-03-11T17:32:14.839Z,98360.34
2019-03-11T17:34:45.278Z,98354.75
2019-03-11T17:37:15.672Z,98357.39
2019-03-11T17:39:46.044Z,98362.37
2019-03-11T17:42:17.227Z,98367.08
2019-03-11T17:44:47.821Z,98370.17
2019-03-11T17:47:18.201Z,98378.33
2019-03-11T17:49:48.448Z,98381.50
2019-03-11T17:52:18.863Z,98385.27
2019-03-11T17:54:49.216Z,98396.73
2019-03-11T17:57:19.611Z,98394.03
2019-03-11T17:59:49.954Z,98399.01
2019-03-11T18:02:20.490Z,98399.48
2019-03-11T18:04:50.905Z,98407.89
2019-03-11T18:07:21.153Z,98423.53
2019-03-11T18:09:51.596Z,98418.37
2019-03-11T18:12:22.000Z,98422.81
2019-03-11T18:14:52.346Z,98426.63
2019-03-11T18:17:22.668Z,98436.50
2019-03-11T18:19:52.929Z,98435.89
2019-03-11T18:22:23.294Z,98438.72
2019-03-11T18:24:53.783Z,98436.38
2019-03-11T18:27:24.121Z,98431.99
2019-03-11T18:29:54.459Z,98429.06
2019-03-11T18:32:24.881Z,98429.94
2019-03-11T18:34:54.952Z,98437.97
2019-03-11T18:37:25.284Z,98436.97
2019-03-11T18:39:55.623Z,98455.42
2019-03-11T18:42:28.388Z,98452.08
2019-03-11T18:44:58.045Z,98459.42
2019-03-11T18:47:28.421Z,98464.64
2019-03-11T18:49:58.631Z,98469.09
2019-03-11T18:52:28.949Z,98476.42
2019-03-11T18:54:59.054Z,98472.02
2019-03-11T18:57:29.288Z,98481.88
2019-03-11T18:59:59.482Z,98483.81
2019-03-11T19:02:29.839Z,98484.20
2019-03-11T19:05:00.027Z,98491.59
2019-03-11T19:07:30.280Z,98488.45
2019-03-11T19:10:00.665Z,98494.70
2019-03-11T19:12:31.242Z,98508.53
2019-03-11T19:15:02.785Z,98506.43
2019-03-11T19:17:33.043Z,98504.66
2019-03-11T19:20:03.499Z,98506.02
2019-03-11T19:22:33.855Z,98503.45
2019-03-11T19:25:04.614Z,98510.62
2019-03-11T19:27:35.018Z,98511.14
2019-03-11T19:30:06.274Z,98516.77
2019-03-11T19:32:36.645Z,98521.04
2019-03-11T19:35:07.494Z,98521.61
2019-03-11T19:37:37.914Z,98515.95
2019-03-11T19:40:09.998Z,98523.43
2019-03-11T19:42:40.476Z,98532.13
2019-03-11T19:45:11.641Z,98530.93
2019-03-11T19:47:42.008Z,98528.44
2019-03-11T19:50:13.208Z,98523.41
2019-03-11T19:52:43.531Z,98521.79
2019-03-11T19:55:14.058Z,98523.30
2019-03-11T19:57:44.572Z,98531.09
2019-03-11T20:00:18.040Z,98525.23
2019-03-11T20:02:48.603Z,98532.47
2019-03-11T20:05:21.310Z,98535.17
2019-03-11T20:07:51.697Z,98572.57
2019-03-11T20:10:22.137Z,98531.52
2019-03-11T20:12:52.580Z,98539.30
2019-03-11T20:15:23.013Z,98542.47
2019-03-11T20:17:53.408Z,98549.81
2019-03-11T20:20:23.817Z,98557.02
2019-03-11T20:22:54.208Z,98553.16
2019-03-11T20:25:26.808Z,98566.55
2019-03-11T20:27:57.215Z,98572.38
2019-03-11T20:30:27.961Z,98560.68
2019-03-11T20:32:58.349Z,98569.89
2019-03-11T20:35:28.779Z,98562.81
2019-03-11T20:37:59.311Z,98560.62
2019-03-11T20:40:29.751Z,98568.64
2019-03-11T20:43:00.193Z,98565.62
2019-03-11T20:45:30.656Z,98563.71
2019-03-11T20:48:00.949Z,98576.25
2019-03-11T20:50:41.450Z,98582.08
2019-03-11T20:53:05.598Z,98581.47
2019-03-11T20:55:35.587Z,98581.09
2019-03-11T20:58:06.077Z,98566.55
2019-03-11T21:03:33.609Z,98582.30
2019-03-11T21:06:05.006Z,98569.66
2019-03-11T21:08:35.403Z,98588.70
2019-03-11T21:11:05.848Z,98587.05
2019-03-11T21:13:36.264Z,98579.22
2019-03-11T21:16:06.611Z,98586.48
2019-03-11T21:18:36.798Z,98603.55
2019-03-11T21:21:07.423Z,98600.69
2019-03-11T21:23:37.673Z,98589.11
2019-03-11T21:26:08.233Z,98591.80
2019-03-11T21:28:38.582Z,98592.84
2019-03-11T21:31:09.012Z,98585.88
2019-03-11T21:33:39.464Z,98591.19
2019-03-11T21:36:09.838Z,98591.19
2019-03-11T21:38:40.287Z,98592.34
2019-03-11T21:41:10.652Z,98592.84
2019-03-11T21:43:41.005Z,98599.10
2019-03-11T21:46:11.362Z,98608.92
2019-03-11T21:48:41.670Z,98600.95
2019-03-11T21:51:12.092Z,98612.56
2019-03-11T21:53:42.415Z,98619.88
2019-03-11T21:56:12.951Z,98620.59
2019-03-11T21:58:43.384Z,98621.02
2019-03-11T22:01:14.021Z,98633.96
2019-03-11T22:03:44.851Z,98630.14
2019-03-11T22:06:15.128Z,98627.77
2019-03-11T22:08:45.432Z,98622.87
2019-03-11T22:11:15.801Z,98623.23
2019-03-11T22:13:46.047Z,98624.55
2019-03-11T22:16:16.454Z,98628.91
2019-03-11T22:18:46.629Z,98625.75
2019-03-11T22:21:16.834Z,98626.44
2019-03-11T22:23:47.533Z,98633.09
2019-03-11T22:26:18.163Z,98624.91
2019-03-11T22:28:48.444Z,98617.76
2019-03-11T22:31:18.881Z,98632.77
2019-03-11T22:33:49.207Z,98629.03
2019-03-11T22:36:19.587Z,98640.55
2019-03-11T22:38:49.805Z,98630.88
2019-03-11T22:41:20.131Z,98647.80
2019-03-11T22:43:50.372Z,98639.66
2019-03-11T22:46:20.780Z,98652.70
2019-03-11T22:48:51.094Z,98648.58
2019-03-11T22:51:21.322Z,98650.11
2019-03-11T22:53:51.941Z,98651.34
2019-03-11T22:56:22.314Z,98648.83
2019-03-11T22:58:52.598Z,98651.18
2019-03-11T23:01:24.285Z,98653.31
2019-03-11T23:03:54.666Z,98652.33
2019-03-11T23:06:24.951Z,98654.67
2019-03-11T23:08:55.401Z,98653.03
2019-03-11T23:11:25.641Z,98649.41
2019-03-11T23:13:55.980Z,98649.16
2019-03-11T23:16:26.223Z,98667.28
2019-03-11T23:18:56.483Z,98654.78
2019-03-11T23:21:26.829Z,98658.77
2019-03-11T23:23:57.370Z,98657.00
2019-03-11T23:26:27.744Z,98657.69
2019-03-11T23:28:58.240Z,98666.73
2019-03-11T23:31:28.422Z,98667.55
2019-03-11T23:33:58.696Z,98671.40
2019-03-11T23:36:28.962Z,98680.98
2019-03-11T23:38:59.104Z,98677.28
2019-03-11T23:41:30.125Z,98681.80
2019-03-11T23:44:00.430Z,98694.76
2019-03-11T23:46:30.581Z,98692.20
2019-03-11T23:49:00.795Z,98691.41
2019-03-11T23:51:31.153Z,98700.98
2019-03-11T23:54:04.814Z,98701.34
2019-03-11T23:56:35.198Z,98704.46
2019-03-11T23:59:05.423Z,98702.71
